sensor_id;sensor_type;location;lat;lon;timestamp;P1;durP1;ratioP1;P2;durP2;ratioP2
16304;SDS011;8261;47.678;-122.174;2022-10-15T00:02:19;20.00;;;17.43;;
16304;SDS011;8261;47.678;-122.174;2022-10-15T00:04:54;18.10;;;15.97;;
16304;SDS011;8261;47.678;-122.174;2022-10-15T00:07:27;17.83;;;14.77;;
16304;SDS011;8261;47.678;-122.174;2022-10-15T00:09:59;20.97;;;15.07;;
16304;SDS011;8261;47.678;-122.174;2022-10-15T00:12:30;21.33;;;15.03;;
16304;SDS011;8261;47.678;-122.174;2022-10-15T00:15:01;18.90;;;14.70;;
16304;SDS011;8261;47.678;-122.174;2022-10-15T00:17:34;16.43;;;14.03;;
16304;SDS011;8261;47.678;-122.174;2022-10-15T00:20:10;17.47;;;12.23;;
16304;SDS011;8261;47.678;-122.174;2022-10-15T00:22:41;18.47;;;12.13;;
16304;SDS011;8261;47.678;-122.174;2022-10-15T00:25:13;18.03;;;12.80;;
16304;SDS011;8261;47.678;-122.174;2022-10-15T00:27:44;18.23;;;12.33;;
16304;SDS011;8261;47.678;-122.174;2022-10-15T00:30:14;12.90;;;11.43;;
16304;SDS011;8261;47.678;-122.174;2022-10-15T00:32:45;15.27;;;11.60;;
16304;SDS011;8261;47.678;-122.174;2022-10-15T00:35:18;14.77;;;10.17;;
16304;SDS011;8261;47.678;-122.174;2022-10-15T00:37:50;16.07;;;11.20;;
16304;SDS011;8261;47.678;-122.174;2022-10-15T00:40:21;15.03;;;10.00;;
16304;SDS011;8261;47.678;-122.174;2022-10-15T00:42:52;12.80;;;10.33;;
16304;SDS011;8261;47.678;-122.174;2022-10-15T00:45:23;13.33;;;10.10;;
16304;SDS011;8261;47.678;-122.174;2022-10-15T00:47:55;13.07;;;8.93;;
16304;SDS011;8261;47.678;-122.174;2022-10-15T00:50:29;13.93;;;9.13;;
16304;SDS011;8261;47.678;-122.174;2022-10-15T00:53:01;11.63;;;8.67;;
16304;SDS011;8261;47.678;-122.174;2022-10-15T00:55:38;10.07;;;8.00;;
16304;SDS011;8261;47.678;-122.174;2022-10-15T00:58:13;10.70;;;7.37;;
16304;SDS011;8261;47.678;-122.174;2022-10-15T01:00:46;12.27;;;8.30;;
16304;SDS011;8261;47.678;-122.174;2022-10-15T01:03:17;9.53;;;6.97;;
16304;SDS011;8261;47.678;-122.174;2022-10-15T01:05:53;11.20;;;8.33;;
16304;SDS011;8261;47.678;-122.174;2022-10-15T01:08:24;12.00;;;7.57;;
16304;SDS011;8261;47.678;-122.174;2022-10-15T01:10:59;9.17;;;7.57;;
16304;SDS011;8261;47.678;-122.174;2022-10-15T01:13:38;10.03;;;7.30;;
16304;SDS011;8261;47.678;-122.174;2022-10-15T01:16:17;10.50;;;7.80;;
16304;SDS011;8261;47.678;-122.174;2022-10-15T01:18:55;11.40;;;7.97;;
16304;SDS011;8261;47.678;-122.174;2022-10-15T01:21:33;15.17;;;7.83;;
16304;SDS011;8261;47.678;-122.174;2022-10-15T01:24:19;10.63;;;7.97;;
16304;SDS011;8261;47.678;-122.174;2022-10-15T01:27:24;14.23;;;8.50;;
16304;SDS011;8261;47.678;-122.174;2022-10-15T01:33:10;14.07;;;8.30;;
16304;SDS011;8261;47.678;-122.174;2022-10-15T01:35:55;13.27;;;7.77;;
16304;SDS011;8261;47.678;-122.174;2022-10-15T01:38:43;12.87;;;8.17;;
16304;SDS011;8261;47.678;-122.174;2022-10-15T01:41:24;11.13;;;7.90;;
16304;SDS011;8261;47.678;-122.174;2022-10-15T01:43:59;17.47;;;7.83;;
16304;SDS011;8261;47.678;-122.174;2022-10-15T01:46:38;8.90;;;7.60;;
16304;SDS011;8261;47.678;-122.174;2022-10-15T01:49:14;9.60;;;6.90;;
16304;SDS011;8261;47.678;-122.174;2022-10-15T01:51:49;13.40;;;8.30;;
16304;SDS011;8261;47.678;-122.174;2022-10-15T01:54:24;10.47;;;7.60;;
16304;SDS011;8261;47.678;-122.174;2022-10-15T01:56:57;11.93;;;7.50;;
16304;SDS011;8261;47.678;-122.174;2022-10-15T01:59:30;12.50;;;7.37;;
16304;SDS011;8261;47.678;-122.174;2022-10-15T02:02:05;13.83;;;8.20;;
16304;SDS011;8261;47.678;-122.174;2022-10-15T02:04:38;13.83;;;8.43;;
16304;SDS011;8261;47.678;-122.174;2022-10-15T02:07:10;11.13;;;8.60;;
16304;SDS011;8261;47.678;-122.174;2022-10-15T02:09:49;16.40;;;9.00;;
16304;SDS011;8261;47.678;-122.174;2022-10-15T02:12:30;13.33;;;8.77;;
16304;SDS011;8261;47.678;-122.174;2022-10-15T02:15:13;13.80;;;9.17;;
16304;SDS011;8261;47.678;-122.174;2022-10-15T02:17:56;13.83;;;8.93;;
16304;SDS011;8261;47.678;-122.174;2022-10-15T02:20:30;13.50;;;9.47;;
16304;SDS011;8261;47.678;-122.174;2022-10-15T02:23:09;12.83;;;9.30;;
16304;SDS011;8261;47.678;-122.174;2022-10-15T02:25:43;14.97;;;9.60;;
16304;SDS011;8261;47.678;-122.174;2022-10-15T02:28:17;13.27;;;9.50;;
16304;SDS011;8261;47.678;-122.174;2022-10-15T02:30:49;13.80;;;9.47;;
16304;SDS011;8261;47.678;-122.174;2022-10-15T02:33:25;13.53;;;8.73;;
16304;SDS011;8261;47.678;-122.174;2022-10-15T02:35:58;13.77;;;9.30;;
16304;SDS011;8261;47.678;-122.174;2022-10-15T02:38:30;12.93;;;9.50;;
16304;SDS011;8261;47.678;-122.174;2022-10-15T02:41:04;13.33;;;9.33;;
16304;SDS011;8261;47.678;-122.174;2022-10-15T02:43:37;16.10;;;10.07;;
16304;SDS011;8261;47.678;-122.174;2022-10-15T02:46:10;13.33;;;10.13;;
16304;SDS011;8261;47.678;-122.174;2022-10-15T02:48:45;17.73;;;10.00;;
16304;SDS011;8261;47.678;-122.174;2022-10-15T02:51:17;15.37;;;10.23;;
16304;SDS011;8261;47.678;-122.174;2022-10-15T02:53:49;12.93;;;9.67;;
16304;SDS011;8261;47.678;-122.174;2022-10-15T02:56:20;12.77;;;9.00;;
16304;SDS011;8261;47.678;-122.174;2022-10-15T02:58:54;13.97;;;9.83;;
16304;SDS011;8261;47.678;-122.174;2022-10-15T03:01:25;11.37;;;8.80;;
16304;SDS011;8261;47.678;-122.174;2022-10-15T03:03:59;13.63;;;9.50;;
16304;SDS011;8261;47.678;-122.174;2022-10-15T03:06:30;14.73;;;9.50;;
16304;SDS011;8261;47.678;-122.174;2022-10-15T03:09:02;11.67;;;9.30;;
16304;SDS011;8261;47.678;-122.174;2022-10-15T03:11:33;15.60;;;8.90;;
16304;SDS011;8261;47.678;-122.174;2022-10-15T03:14:04;13.23;;;9.17;;
16304;SDS011;8261;47.678;-122.174;2022-10-15T03:16:35;11.90;;;8.97;;
16304;SDS011;8261;47.678;-122.174;2022-10-15T03:19:09;11.00;;;8.77;;
16304;SDS011;8261;47.678;-122.174;2022-10-15T03:21:40;11.47;;;8.93;;
16304;SDS011;8261;47.678;-122.174;2022-10-15T03:24:11;11.97;;;9.23;;
16304;SDS011;8261;47.678;-122.174;2022-10-15T03:26:42;12.27;;;9.33;;
16304;SDS011;8261;47.678;-122.174;2022-10-15T03:29:13;12.73;;;9.20;;
16304;SDS011;8261;47.678;-122.174;2022-10-15T03:31:45;13.17;;;9.27;;
16304;SDS011;8261;47.678;-122.174;2022-10-15T03:34:18;12.17;;;8.73;;
16304;SDS011;8261;47.678;-122.174;2022-10-15T03:36:49;17.43;;;9.10;;
16304;SDS011;8261;47.678;-122.174;2022-10-15T03:39:20;13.07;;;8.80;;
16304;SDS011;8261;47.678;-122.174;2022-10-15T03:41:51;16.33;;;9.07;;
16304;SDS011;8261;47.678;-122.174;2022-10-15T03:44:23;14.53;;;9.37;;
16304;SDS011;8261;47.678;-122.174;2022-10-15T03:46:54;13.67;;;9.63;;
16304;SDS011;8261;47.678;-122.174;2022-10-15T03:49:27;14.17;;;9.47;;
16304;SDS011;8261;47.678;-122.174;2022-10-15T03:51:58;12.60;;;9.37;;
16304;SDS011;8261;47.678;-122.174;2022-10-15T03:54:31;14.87;;;10.30;;
16304;SDS011;8261;47.678;-122.174;2022-10-15T03:57:02;13.43;;;9.50;;
16304;SDS011;8261;47.678;-122.174;2022-10-15T03:59:34;13.43;;;9.93;;
16304;SDS011;8261;47.678;-122.174;2022-10-15T04:02:05;16.13;;;9.73;;
16304;SDS011;8261;47.678;-122.174;2022-10-15T04:04:39;16.40;;;9.77;;
16304;SDS011;8261;47.678;-122.174;2022-10-15T04:07:11;13.17;;;10.63;;
16304;SDS011;8261;47.678;-122.174;2022-10-15T04:09:42;14.70;;;11.63;;
16304;SDS011;8261;47.678;-122.174;2022-10-15T04:12:13;18.40;;;11.07;;
16304;SDS011;8261;47.678;-122.174;2022-10-15T04:14:44;18.30;;;12.67;;
16304;SDS011;8261;47.678;-122.174;2022-10-15T04:17:15;17.77;;;11.93;;
16304;SDS011;8261;47.678;-122.174;2022-10-15T04:19:50;16.67;;;12.73;;
16304;SDS011;8261;47.678;-122.174;2022-10-15T04:22:21;20.87;;;13.97;;
16304;SDS011;8261;47.678;-122.174;2022-10-15T04:24:53;19.57;;;14.87;;
16304;SDS011;8261;47.678;-122.174;2022-10-15T04:27:24;21.57;;;14.83;;
16304;SDS011;8261;47.678;-122.174;2022-10-15T04:29:55;21.60;;;15.57;;
16304;SDS011;8261;47.678;-122.174;2022-10-15T04:32:27;23.20;;;15.13;;
16304;SDS011;8261;47.678;-122.174;2022-10-15T04:35:00;20.67;;;15.77;;
16304;SDS011;8261;47.678;-122.174;2022-10-15T04:37:31;24.30;;;17.20;;
16304;SDS011;8261;47.678;-122.174;2022-10-15T04:40:03;24.07;;;17.87;;
16304;SDS011;8261;47.678;-122.174;2022-10-15T04:42:35;25.50;;;18.10;;
16304;SDS011;8261;47.678;-122.174;2022-10-15T04:45:07;25.43;;;18.73;;
16304;SDS011;8261;47.678;-122.174;2022-10-15T04:47:38;24.83;;;19.10;;
16304;SDS011;8261;47.678;-122.174;2022-10-15T04:50:11;27.03;;;19.83;;
16304;SDS011;8261;47.678;-122.174;2022-10-15T04:52:42;30.80;;;21.73;;
16304;SDS011;8261;47.678;-122.174;2022-10-15T04:55:13;28.00;;;21.80;;
16304;SDS011;8261;47.678;-122.174;2022-10-15T04:57:47;28.83;;;20.57;;
16304;SDS011;8261;47.678;-122.174;2022-10-15T05:00:18;26.67;;;21.33;;
16304;SDS011;8261;47.678;-122.174;2022-10-15T05:02:49;31.67;;;22.93;;
16304;SDS011;8261;47.678;-122.174;2022-10-15T05:05:23;32.80;;;24.70;;
16304;SDS011;8261;47.678;-122.174;2022-10-15T05:07:57;35.90;;;24.07;;
16304;SDS011;8261;47.678;-122.174;2022-10-15T05:10:29;31.03;;;23.50;;
16304;SDS011;8261;47.678;-122.174;2022-10-15T05:13:01;32.23;;;23.10;;
16304;SDS011;8261;47.678;-122.174;2022-10-15T05:15:32;31.30;;;22.37;;
16304;SDS011;8261;47.678;-122.174;2022-10-15T05:18:03;27.93;;;21.07;;
16304;SDS011;8261;47.678;-122.174;2022-10-15T05:20:36;31.00;;;21.00;;
16304;SDS011;8261;47.678;-122.174;2022-10-15T05:23:10;26.53;;;21.70;;
16304;SDS011;8261;47.678;-122.174;2022-10-15T05:25:42;26.97;;;20.23;;
16304;SDS011;8261;47.678;-122.174;2022-10-15T05:28:19;29.67;;;22.27;;
16304;SDS011;8261;47.678;-122.174;2022-10-15T05:30:51;28.73;;;21.73;;
16304;SDS011;8261;47.678;-122.174;2022-10-15T05:33:22;32.47;;;22.47;;
16304;SDS011;8261;47.678;-122.174;2022-10-15T05:36:06;27.57;;;21.50;;
16304;SDS011;8261;47.678;-122.174;2022-10-15T05:38:38;31.33;;;23.47;;
16304;SDS011;8261;47.678;-122.174;2022-10-15T05:41:10;33.43;;;23.17;;
16304;SDS011;8261;47.678;-122.174;2022-10-15T05:43:42;31.43;;;23.90;;
16304;SDS011;8261;47.678;-122.174;2022-10-15T05:46:14;28.83;;;23.07;;
16304;SDS011;8261;47.678;-122.174;2022-10-15T05:48:47;31.23;;;24.20;;
16304;SDS011;8261;47.678;-122.174;2022-10-15T05:51:22;37.10;;;23.57;;
16304;SDS011;8261;47.678;-122.174;2022-10-15T05:53:55;30.83;;;23.83;;
16304;SDS011;8261;47.678;-122.174;2022-10-15T05:56:26;33.33;;;24.00;;
16304;SDS011;8261;47.678;-122.174;2022-10-15T05:58:57;34.60;;;23.70;;
16304;SDS011;8261;47.678;-122.174;2022-10-15T06:01:29;33.30;;;23.53;;
16304;SDS011;8261;47.678;-122.174;2022-10-15T06:04:00;32.57;;;23.43;;
16304;SDS011;8261;47.678;-122.174;2022-10-15T06:06:34;32.57;;;23.03;;
16304;SDS011;8261;47.678;-122.174;2022-10-15T06:09:06;28.93;;;23.10;;
16304;SDS011;8261;47.678;-122.174;2022-10-15T06:11:37;30.33;;;22.77;;
16304;SDS011;8261;47.678;-122.174;2022-10-15T06:14:09;29.23;;;22.50;;
16304;SDS011;8261;47.678;-122.174;2022-10-15T06:16:40;32.47;;;22.83;;
16304;SDS011;8261;47.678;-122.174;2022-10-15T06:19:11;29.73;;;20.77;;
16304;SDS011;8261;47.678;-122.174;2022-10-15T06:21:45;30.50;;;21.20;;
16304;SDS011;8261;47.678;-122.174;2022-10-15T06:24:20;24.87;;;19.10;;
16304;SDS011;8261;47.678;-122.174;2022-10-15T06:26:51;28.27;;;19.17;;
16304;SDS011;8261;47.678;-122.174;2022-10-15T06:29:22;28.90;;;19.97;;
16304;SDS011;8261;47.678;-122.174;2022-10-15T06:31:53;27.37;;;19.70;;
16304;SDS011;8261;47.678;-122.174;2022-10-15T06:34:25;26.13;;;18.53;;
16304;SDS011;8261;47.678;-122.174;2022-10-15T06:36:59;27.20;;;20.17;;
16304;SDS011;8261;47.678;-122.174;2022-10-15T06:39:30;27.03;;;18.43;;
16304;SDS011;8261;47.678;-122.174;2022-10-15T06:42:01;24.40;;;18.10;;
16304;SDS011;8261;47.678;-122.174;2022-10-15T06:44:33;26.53;;;18.43;;
16304;SDS011;8261;47.678;-122.174;2022-10-15T06:47:04;28.20;;;19.27;;
16304;SDS011;8261;47.678;-122.174;2022-10-15T06:49:35;26.27;;;19.93;;
16304;SDS011;8261;47.678;-122.174;2022-10-15T06:52:10;29.13;;;19.23;;
16304;SDS011;8261;47.678;-122.174;2022-10-15T06:54:41;27.20;;;19.60;;
16304;SDS011;8261;47.678;-122.174;2022-10-15T06:57:12;31.27;;;20.43;;
16304;SDS011;8261;47.678;-122.174;2022-10-15T06:59:43;30.00;;;19.43;;
16304;SDS011;8261;47.678;-122.174;2022-10-15T07:02:15;26.60;;;20.10;;
16304;SDS011;8261;47.678;-122.174;2022-10-15T07:04:47;26.00;;;19.67;;
16304;SDS011;8261;47.678;-122.174;2022-10-15T07:07:21;27.60;;;18.83;;
16304;SDS011;8261;47.678;-122.174;2022-10-15T07:09:52;27.10;;;18.97;;
16304;SDS011;8261;47.678;-122.174;2022-10-15T07:12:23;26.77;;;18.60;;
16304;SDS011;8261;47.678;-122.174;2022-10-15T07:14:55;23.77;;;17.67;;
16304;SDS011;8261;47.678;-122.174;2022-10-15T07:17:27;25.47;;;17.67;;
16304;SDS011;8261;47.678;-122.174;2022-10-15T07:20:02;24.83;;;18.17;;
16304;SDS011;8261;47.678;-122.174;2022-10-15T07:22:35;26.67;;;18.87;;
16304;SDS011;8261;47.678;-122.174;2022-10-15T07:25:06;24.30;;;18.07;;
16304;SDS011;8261;47.678;-122.174;2022-10-15T07:27:38;25.90;;;19.17;;
16304;SDS011;8261;47.678;-122.174;2022-10-15T07:30:10;41.47;;;23.17;;
16304;SDS011;8261;47.678;-122.174;2022-10-15T07:32:42;37.20;;;22.77;;
16304;SDS011;8261;47.678;-122.174;2022-10-15T07:35:13;39.03;;;24.50;;
16304;SDS011;8261;47.678;-122.174;2022-10-15T07:37:46;35.03;;;23.30;;
16304;SDS011;8261;47.678;-122.174;2022-10-15T07:40:18;35.43;;;22.90;;
16304;SDS011;8261;47.678;-122.174;2022-10-15T07:42:53;31.10;;;22.00;;
16304;SDS011;8261;47.678;-122.174;2022-10-15T07:45:25;29.00;;;19.93;;
16304;SDS011;8261;47.678;-122.174;2022-10-15T07:47:56;27.23;;;19.03;;
16304;SDS011;8261;47.678;-122.174;2022-10-15T07:50:28;25.57;;;19.13;;
16304;SDS011;8261;47.678;-122.174;2022-10-15T07:53:06;26.03;;;17.90;;
16304;SDS011;8261;47.678;-122.174;2022-10-15T07:55:38;24.20;;;17.73;;
16304;SDS011;8261;47.678;-122.174;2022-10-15T07:58:09;25.37;;;18.10;;
16304;SDS011;8261;47.678;-122.174;2022-10-15T08:00:40;26.67;;;18.43;;
16304;SDS011;8261;47.678;-122.174;2022-10-15T08:03:11;23.00;;;17.93;;
16304;SDS011;8261;47.678;-122.174;2022-10-15T08:05:42;25.63;;;17.60;;
16304;SDS011;8261;47.678;-122.174;2022-10-15T08:08:17;24.67;;;18.40;;
16304;SDS011;8261;47.678;-122.174;2022-10-15T08:10:48;23.70;;;18.83;;
16304;SDS011;8261;47.678;-122.174;2022-10-15T08:13:19;27.97;;;19.50;;
16304;SDS011;8261;47.678;-122.174;2022-10-15T08:15:50;28.20;;;19.63;;
16304;SDS011;8261;47.678;-122.174;2022-10-15T08:18:25;27.23;;;19.70;;
16304;SDS011;8261;47.678;-122.174;2022-10-15T08:20:57;25.27;;;18.13;;
16304;SDS011;8261;47.678;-122.174;2022-10-15T08:23:32;27.80;;;20.23;;
16304;SDS011;8261;47.678;-122.174;2022-10-15T08:26:03;26.67;;;20.33;;
16304;SDS011;8261;47.678;-122.174;2022-10-15T08:28:36;28.53;;;20.17;;
16304;SDS011;8261;47.678;-122.174;2022-10-15T08:31:08;27.67;;;20.53;;
16304;SDS011;8261;47.678;-122.174;2022-10-15T08:33:39;29.03;;;20.83;;
16304;SDS011;8261;47.678;-122.174;2022-10-15T08:36:13;30.13;;;20.57;;
16304;SDS011;8261;47.678;-122.174;2022-10-15T08:38:46;30.80;;;21.43;;
16304;SDS011;8261;47.678;-122.174;2022-10-15T08:41:19;27.03;;;20.47;;
16304;SDS011;8261;47.678;-122.174;2022-10-15T08:43:55;30.77;;;21.30;;
16304;SDS011;8261;47.678;-122.174;2022-10-15T08:46:28;29.50;;;21.20;;
16304;SDS011;8261;47.678;-122.174;2022-10-15T08:49:04;28.37;;;21.97;;
16304;SDS011;8261;47.678;-122.174;2022-10-15T08:51:43;33.90;;;23.13;;
16304;SDS011;8261;47.678;-122.174;2022-10-15T08:54:22;33.20;;;22.03;;
16304;SDS011;8261;47.678;-122.174;2022-10-15T08:56:53;31.77;;;22.53;;
16304;SDS011;8261;47.678;-122.174;2022-10-15T08:59:38;31.33;;;22.23;;
16304;SDS011;8261;47.678;-122.174;2022-10-15T09:02:18;29.40;;;22.37;;
16304;SDS011;8261;47.678;-122.174;2022-10-15T09:04:54;33.47;;;23.47;;
16304;SDS011;8261;47.678;-122.174;2022-10-15T09:07:33;34.27;;;25.70;;
16304;SDS011;8261;47.678;-122.174;2022-10-15T09:10:14;31.83;;;25.07;;
16304;SDS011;8261;47.678;-122.174;2022-10-15T09:12:49;36.83;;;25.70;;
16304;SDS011;8261;47.678;-122.174;2022-10-15T09:15:27;37.43;;;26.63;;
16304;SDS011;8261;47.678;-122.174;2022-10-15T09:18:09;38.83;;;28.27;;
16304;SDS011;8261;47.678;-122.174;2022-10-15T09:20:49;40.27;;;27.13;;
16304;SDS011;8261;47.678;-122.174;2022-10-15T09:23:22;38.57;;;27.47;;
16304;SDS011;8261;47.678;-122.174;2022-10-15T09:25:59;40.40;;;28.57;;
16304;SDS011;8261;47.678;-122.174;2022-10-15T09:28:37;39.40;;;29.47;;
16304;SDS011;8261;47.678;-122.174;2022-10-15T09:31:12;40.30;;;28.60;;
16304;SDS011;8261;47.678;-122.174;2022-10-15T09:33:49;40.43;;;29.20;;
16304;SDS011;8261;47.678;-122.174;2022-10-15T09:36:27;43.77;;;30.07;;
16304;SDS011;8261;47.678;-122.174;2022-10-15T09:39:11;38.13;;;28.67;;
16304;SDS011;8261;47.678;-122.174;2022-10-15T09:42:04;39.70;;;29.77;;
16304;SDS011;8261;47.678;-122.174;2022-10-15T09:44:45;40.60;;;30.50;;
16304;SDS011;8261;47.678;-122.174;2022-10-15T09:47:21;46.20;;;32.03;;
16304;SDS011;8261;47.678;-122.174;2022-10-15T09:49:53;45.33;;;31.50;;
16304;SDS011;8261;47.678;-122.174;2022-10-15T09:52:29;44.53;;;32.57;;
16304;SDS011;8261;47.678;-122.174;2022-10-15T09:55:19;43.70;;;32.10;;
16304;SDS011;8261;47.678;-122.174;2022-10-15T09:58:11;52.47;;;34.13;;
16304;SDS011;8261;47.678;-122.174;2022-10-15T10:00:52;46.90;;;33.20;;
16304;SDS011;8261;47.678;-122.174;2022-10-15T10:03:27;44.93;;;33.33;;
16304;SDS011;8261;47.678;-122.174;2022-10-15T10:06:01;50.73;;;33.40;;
16304;SDS011;8261;47.678;-122.174;2022-10-15T10:08:34;43.33;;;32.83;;
16304;SDS011;8261;47.678;-122.174;2022-10-15T10:11:08;46.07;;;34.03;;
16304;SDS011;8261;47.678;-122.174;2022-10-15T10:13:43;45.13;;;32.73;;
16304;SDS011;8261;47.678;-122.174;2022-10-15T10:16:21;44.43;;;32.83;;
16304;SDS011;8261;47.678;-122.174;2022-10-15T10:19:03;48.77;;;32.60;;
16304;SDS011;8261;47.678;-122.174;2022-10-15T10:21:41;43.07;;;32.33;;
16304;SDS011;8261;47.678;-122.174;2022-10-15T10:24:22;43.80;;;32.03;;
16304;SDS011;8261;47.678;-122.174;2022-10-15T10:26:57;43.43;;;31.20;;
16304;SDS011;8261;47.678;-122.174;2022-10-15T10:29:37;43.37;;;31.90;;
16304;SDS011;8261;47.678;-122.174;2022-10-15T10:32:11;40.80;;;29.07;;
16304;SDS011;8261;47.678;-122.174;2022-10-15T10:34:49;41.57;;;30.50;;
16304;SDS011;8261;47.678;-122.174;2022-10-15T10:37:20;41.53;;;30.43;;
16304;SDS011;8261;47.678;-122.174;2022-10-15T10:39:53;44.80;;;30.93;;
16304;SDS011;8261;47.678;-122.174;2022-10-15T10:42:27;43.80;;;31.10;;
16304;SDS011;8261;47.678;-122.174;2022-10-15T10:45:20;42.53;;;30.60;;
16304;SDS011;8261;47.678;-122.174;2022-10-15T10:47:54;40.33;;;29.47;;
16304;SDS011;8261;47.678;-122.174;2022-10-15T10:50:28;41.90;;;30.80;;
16304;SDS011;8261;47.678;-122.174;2022-10-15T10:53:10;41.27;;;30.50;;
16304;SDS011;8261;47.678;-122.174;2022-10-15T10:55:52;41.23;;;29.80;;
16304;SDS011;8261;47.678;-122.174;2022-10-15T10:58:27;42.37;;;30.60;;
16304;SDS011;8261;47.678;-122.174;2022-10-15T11:01:04;43.30;;;29.87;;
16304;SDS011;8261;47.678;-122.174;2022-10-15T11:03:39;40.83;;;30.30;;
16304;SDS011;8261;47.678;-122.174;2022-10-15T11:06:16;44.13;;;31.83;;
16304;SDS011;8261;47.678;-122.174;2022-10-15T11:12:13;46.93;;;34.87;;
16304;SDS011;8261;47.678;-122.174;2022-10-15T11:15:00;55.50;;;37.83;;
16304;SDS011;8261;47.678;-122.174;2022-10-15T11:17:51;52.23;;;39.87;;
16304;SDS011;8261;47.678;-122.174;2022-10-15T11:20:36;54.00;;;40.90;;
16304;SDS011;8261;47.678;-122.174;2022-10-15T11:23:33;59.23;;;41.47;;
16304;SDS011;8261;47.678;-122.174;2022-10-15T11:26:29;61.93;;;43.27;;
16304;SDS011;8261;47.678;-122.174;2022-10-15T11:29:27;62.27;;;45.63;;
16304;SDS011;8261;47.678;-122.174;2022-10-15T11:32:07;64.83;;;48.17;;
16304;SDS011;8261;47.678;-122.174;2022-10-15T11:34:59;65.27;;;46.87;;
16304;SDS011;8261;47.678;-122.174;2022-10-15T11:38:11;68.27;;;49.53;;
16304;SDS011;8261;47.678;-122.174;2022-10-15T11:40:50;64.77;;;47.87;;
16304;SDS011;8261;47.678;-122.174;2022-10-15T11:43:37;74.23;;;50.67;;
16304;SDS011;8261;47.678;-122.174;2022-10-15T11:46:21;72.47;;;49.90;;
16304;SDS011;8261;47.678;-122.174;2022-10-15T11:49:03;69.40;;;51.23;;
16304;SDS011;8261;47.678;-122.174;2022-10-15T11:51:53;81.10;;;58.40;;
16304;SDS011;8261;47.678;-122.174;2022-10-15T11:54:35;85.97;;;57.33;;
16304;SDS011;8261;47.678;-122.174;2022-10-15T11:57:09;88.70;;;60.17;;
16304;SDS011;8261;47.678;-122.174;2022-10-15T11:59:46;85.73;;;58.73;;
16304;SDS011;8261;47.678;-122.174;2022-10-15T12:02:22;87.80;;;60.67;;
16304;SDS011;8261;47.678;-122.174;2022-10-15T12:04:58;99.23;;;66.27;;
16304;SDS011;8261;47.678;-122.174;2022-10-15T12:07:36;102.70;;;69.83;;
16304;SDS011;8261;47.678;-122.174;2022-10-15T12:10:15;119.23;;;79.57;;
16304;SDS011;8261;47.678;-122.174;2022-10-15T12:13:00;115.63;;;79.53;;
16304;SDS011;8261;47.678;-122.174;2022-10-15T12:15:40;113.33;;;78.27;;
16304;SDS011;8261;47.678;-122.174;2022-10-15T12:18:18;111.77;;;77.67;;
16304;SDS011;8261;47.678;-122.174;2022-10-15T12:20:55;103.30;;;72.87;;
16304;SDS011;8261;47.678;-122.174;2022-10-15T12:23:39;112.73;;;74.37;;
16304;SDS011;8261;47.678;-122.174;2022-10-15T12:26:25;101.73;;;72.33;;
16304;SDS011;8261;47.678;-122.174;2022-10-15T12:29:02;100.37;;;69.20;;
16304;SDS011;8261;47.678;-122.174;2022-10-15T12:31:47;93.93;;;65.97;;
16304;SDS011;8261;47.678;-122.174;2022-10-15T12:34:23;93.67;;;67.17;;
16304;SDS011;8261;47.678;-122.174;2022-10-15T12:37:01;95.20;;;67.20;;
16304;SDS011;8261;47.678;-122.174;2022-10-15T12:39:38;98.30;;;66.87;;
16304;SDS011;8261;47.678;-122.174;2022-10-15T12:42:19;94.23;;;64.40;;
16304;SDS011;8261;47.678;-122.174;2022-10-15T12:44:54;90.80;;;62.10;;
16304;SDS011;8261;47.678;-122.174;2022-10-15T12:47:45;89.10;;;66.07;;
16304;SDS011;8261;47.678;-122.174;2022-10-15T12:50:18;89.33;;;62.13;;
16304;SDS011;8261;47.678;-122.174;2022-10-15T12:52:59;92.53;;;64.17;;
16304;SDS011;8261;47.678;-122.174;2022-10-15T12:55:33;92.23;;;63.00;;
16304;SDS011;8261;47.678;-122.174;2022-10-15T13:01:03;85.47;;;59.80;;
16304;SDS011;8261;47.678;-122.174;2022-10-15T13:03:36;91.97;;;63.67;;
16304;SDS011;8261;47.678;-122.174;2022-10-15T13:09:05;92.63;;;65.47;;
16304;SDS011;8261;47.678;-122.174;2022-10-15T13:11:53;104.97;;;69.27;;
16304;SDS011;8261;47.678;-122.174;2022-10-15T13:14:27;95.67;;;68.27;;
16304;SDS011;8261;47.678;-122.174;2022-10-15T13:17:03;97.83;;;69.00;;
16304;SDS011;8261;47.678;-122.174;2022-10-15T13:19:45;97.37;;;69.97;;
16304;SDS011;8261;47.678;-122.174;2022-10-15T13:22:20;106.87;;;72.97;;
16304;SDS011;8261;47.678;-122.174;2022-10-15T13:24:53;104.60;;;73.90;;
16304;SDS011;8261;47.678;-122.174;2022-10-15T13:27:28;102.17;;;72.57;;
16304;SDS011;8261;47.678;-122.174;2022-10-15T13:30:02;112.67;;;76.67;;
16304;SDS011;8261;47.678;-122.174;2022-10-15T13:32:36;107.20;;;76.40;;
16304;SDS011;8261;47.678;-122.174;2022-10-15T13:35:12;104.97;;;75.83;;
16304;SDS011;8261;47.678;-122.174;2022-10-15T13:37:47;108.07;;;75.80;;
16304;SDS011;8261;47.678;-122.174;2022-10-15T13:40:19;103.27;;;73.37;;
16304;SDS011;8261;47.678;-122.174;2022-10-15T13:43:00;102.47;;;73.70;;
16304;SDS011;8261;47.678;-122.174;2022-10-15T13:45:33;101.20;;;69.53;;
16304;SDS011;8261;47.678;-122.174;2022-10-15T13:48:09;98.70;;;70.00;;
16304;SDS011;8261;47.678;-122.174;2022-10-15T13:50:41;89.97;;;66.07;;
16304;SDS011;8261;47.678;-122.174;2022-10-15T13:53:17;93.53;;;68.07;;
16304;SDS011;8261;47.678;-122.174;2022-10-15T13:55:53;95.13;;;66.17;;
16304;SDS011;8261;47.678;-122.174;2022-10-15T13:58:27;92.53;;;66.17;;
16304;SDS011;8261;47.678;-122.174;2022-10-15T14:00:59;92.00;;;66.67;;
16304;SDS011;8261;47.678;-122.174;2022-10-15T14:03:35;93.97;;;65.23;;
16304;SDS011;8261;47.678;-122.174;2022-10-15T14:06:10;91.33;;;66.30;;
16304;SDS011;8261;47.678;-122.174;2022-10-15T14:08:46;98.83;;;68.93;;
16304;SDS011;8261;47.678;-122.174;2022-10-15T14:11:19;105.60;;;71.60;;
16304;SDS011;8261;47.678;-122.174;2022-10-15T14:13:53;100.20;;;69.50;;
16304;SDS011;8261;47.678;-122.174;2022-10-15T14:16:26;105.57;;;74.57;;
16304;SDS011;8261;47.678;-122.174;2022-10-15T14:19:07;114.83;;;80.33;;
16304;SDS011;8261;47.678;-122.174;2022-10-15T14:21:41;128.93;;;83.33;;
16304;SDS011;8261;47.678;-122.174;2022-10-15T14:24:15;124.87;;;86.00;;
16304;SDS011;8261;47.678;-122.174;2022-10-15T14:26:48;121.70;;;85.07;;
16304;SDS011;8261;47.678;-122.174;2022-10-15T14:29:23;120.30;;;84.17;;
16304;SDS011;8261;47.678;-122.174;2022-10-15T14:31:55;133.60;;;91.10;;
16304;SDS011;8261;47.678;-122.174;2022-10-15T14:34:28;144.03;;;96.07;;
16304;SDS011;8261;47.678;-122.174;2022-10-15T14:42:45;140.93;;;99.50;;
16304;SDS011;8261;47.678;-122.174;2022-10-15T14:45:27;143.67;;;99.37;;
16304;SDS011;8261;47.678;-122.174;2022-10-15T14:48:00;144.50;;;101.53;;
16304;SDS011;8261;47.678;-122.174;2022-10-15T14:50:39;143.27;;;98.80;;
16304;SDS011;8261;47.678;-122.174;2022-10-15T14:53:14;145.20;;;99.97;;
16304;SDS011;8261;47.678;-122.174;2022-10-15T14:55:49;142.67;;;100.77;;
16304;SDS011;8261;47.678;-122.174;2022-10-15T14:58:25;147.50;;;102.80;;
16304;SDS011;8261;47.678;-122.174;2022-10-15T15:01:03;140.80;;;98.33;;
16304;SDS011;8261;47.678;-122.174;2022-10-15T15:03:38;148.00;;;102.50;;